Date,TemperatureHighF,TemperatureAvgF,TemperatureLowF,DewpointHighF,DewpointAvgF,DewpointLowF,HumidityHigh,HumidityAvg,HumidityLow,PressureMaxIn,PressureMinIn,WindSpeedMaxMPH,WindSpeedAvgMPH,GustSpeedMaxMPH,PrecipitationSumIn
2013-2-1,77.5,65.8,55.9,63.9,55.0,46.2,79,68,54,30.41,30.41,14,6,14,0.00
2013-2-2,81.7,67.9,60.1,58.4,47.1,31.8,80,50,29,30.41,30.41,9,3,9,0.00
2013-2-3,78.4,66.8,59.7,48.1,41.5,33.0,63,42,22,30.41,30.41,9,3,9,0.00
2013-2-4,77.2,65.1,55.8,46.2,40.0,28.8,53,41,28,30.41,30.41,8,2,9,0.00
2013-2-5,77.0,68.5,59.7,54.9,50.6,45.8,62,53,43,30.41,30.41,9,2,9,0.00
2013-2-6,80.8,72.4,64.9,58.1,55.6,53.0,69,56,43,30.41,30.41,9,3,9,0.00
2013-2-7,87.8,75.8,70.5,59.8,56.2,54.3,62,51,36,30.41,30.41,10,4,10,0.00
2013-2-8,87.4,75.4,70.2,70.1,61.1,57.0,94,62,43,30.41,30.41,14,3,14,0.20
2013-2-9,84.4,72.9,65.7,61.0,55.5,51.7,74,55,42,30.41,30.41,12,4,12,0.00
2013-2-10,79.2,73.9,71.1,57.9,53.8,50.8,56,50,42,30.41,30.41,15,7,15,0.00
2013-2-11,85.1,75.2,70.7,57.9,56.1,53.8,59,52,36,30.41,30.41,15,6,15,0.00
2013-2-12,87.3,75.9,69.4,74.1,60.1,56.5,74,59,39,30.41,30.41,14,4,14,0.00
2013-2-13,88.0,76.7,70.7,65.1,62.5,60.2,75,63,43,30.41,30.41,15,5,15,0.00
2013-2-14,84.2,74.7,65.3,65.7,62.3,54.7,84,67,41,30.41,30.41,18,5,18,0.89
2013-2-15,75.2,68.7,65.5,63.1,60.6,57.9,82,76,64,30.41,30.41,8,3,8,1.11
2013-2-16,78.6,67.6,57.4,60.7,49.4,32.5,76,56,23,30.41,30.41,18,6,18,0.03
2013-2-17,70.9,55.2,48.6,38.2,13.0,-12.8,50,23,5,30.41,30.41,18,7,18,0.00
2013-2-18,72.5,62.1,51.3,47.8,37.2,26.8,49,40,35,30.41,30.41,14,6,14,0.00
2013-2-19,81.7,71.5,67.5,72.0,58.0,47.0,86,63,47,30.41,30.41,14,5,14,0.00
2013-2-20,85.1,72.9,67.5,61.2,58.2,51.4,75,61,45,30.41,30.41,11,3,11,0.00
2013-2-21,84.2,75.3,69.4,60.6,58.6,56.9,67,57,44,30.41,30.41,10,4,10,0.00
2013-2-22,86.4,77.3,73.0,64.5,62.6,59.1,72,61,45,30.41,30.41,15,7,15,0.00
2013-2-23,88.7,78.3,73.9,64.9,63.0,61.2,70,60,44,30.41,30.41,14,6,14,0.00
2013-2-24,87.8,77.7,71.6,76.9,64.8,62.4,78,65,46,30.41,30.41,13,2,13,0.00
2013-2-25,90.5,76.3,71.2,65.7,62.6,59.0,76,64,39,30.41,30.41,13,3,13,0.00
2013-2-26,84.2,78.8,51.3,67.0,63.9,28.9,71,61,42,30.41,30.41,18,6,18,0.00
2013-2-27,78.4,72.8,68.4,68.6,62.9,57.2,86,72,49,30.41,30.41,10,3,10,0.19
2013-2-28,73.2,67.6,62.8,60.1,47.2,39.4,75,50,32,30.41,30.41,12,4,12,0.00